Wetterdaten: Woche 19.07.21 - 25.07.21 (KW29)
Datum Zeit Temp. Aussen Temp. o. S. Temp +5cm Feuchte Auss Luftdruck Regen Sonnenschein Regendauer Solar Windben Empfang
19.07.2021 00:00 19,1 C 17,8 C 16,1 C 80 % 1022,2 hPa 0,0 l/m 0,00 h 0,00 h 0 W/m 4,9 km/h (1 Bft) 97,17 %
19.07.2021 01:00 18,2 C 17,2 C 15,6 C 85 % 1022,2 hPa 0,0 l/m 0,00 h 0,00 h 0 W/m 5,5 km/h (1 Bft) 99,64 %
19.07.2021 02:00 17,6 C 16,4 C 15,2 C 88 % 1022,2 hPa 0,0 l/m 0,00 h 0,00 h 0 W/m 2,2 km/h (1 Bft) 97,86 %
19.07.2021 03:00 16,9 C 15,9 C 14,8 C 89 % 1021,9 hPa 0,0 l/m 0,00 h 0,00 h 0 W/m 1,3 km/h (1 Bft) 96,08 %
19.07.2021 04:00 16,1 C 15,0 C 14,0 C 91 % 1021,9 hPa 0,0 l/m 0,00 h 0,00 h 0 W/m 0,9 km/h (0 Bft) 98,01 %
19.07.2021 05:00 15,3 C 14,3 C 13,5 C 92 % 1021,8 hPa 0,0 l/m 0,00 h 0,00 h 6 W/m 1,6 km/h (1 Bft) 95,82 %
19.07.2021 06:00 15,2 C 14,7 C 14,2 C 93 % 1022,1 hPa 0,0 l/m 0,00 h 0,00 h 21 W/m 2,5 km/h (1 Bft) 96,43 %
19.07.2021 07:00 15,8 C 15,9 C 15,2 C 93 % 1022,5 hPa 0,0 l/m 0,00 h 0,00 h 60 W/m 6,1 km/h (2 Bft) 97,94 %
19.07.2021 08:00 17,0 C 17,7 C 16,4 C 89 % 1022,6 hPa 0,0 l/m 0,40 h 0,00 h 195 W/m 7,0 km/h (2 Bft) 99,29 %
19.07.2021 09:00 18,3 C 19,1 C 17,7 C 83 % 1022,7 hPa 0,0 l/m 0,03 h 0,00 h 243 W/m 9,1 km/h (2 Bft) 97,86 %
19.07.2021 10:00 19,1 C 19,4 C 17,7 C 78 % 1022,7 hPa 0,0 l/m 0,10 h 0,00 h 204 W/m 9,9 km/h (2 Bft) 96,83 %
19.07.2021 11:00 19,4 C 19,8 C 17,7 C 76 % 1022,6 hPa 0,0 l/m 0,00 h 0,00 h 271 W/m 12,4 km/h (3 Bft) 96,68 %
19.07.2021 12:00 20,2 C 20,8 C 18,5 C 72 % 1022,4 hPa 0,0 l/m 0,17 h 0,00 h 329 W/m 11,4 km/h (2 Bft) 99,30 %
19.07.2021 13:00 20,9 C 22,3 C 19,8 C 71 % 1022,1 hPa 0,0 l/m 0,47 h 0,00 h 426 W/m 9,6 km/h (2 Bft) 98,50 %
19.07.2021 14:00 21,6 C 22,9 C 19,8 C 70 % 1021,8 hPa 0,0 l/m 0,47 h 0,00 h 448 W/m 11,2 km/h (2 Bft) 94,66 %
19.07.2021 15:00 21,8 C 22,3 C 19,6 C 70 % 1021,6 hPa 0,0 l/m 0,37 h 0,00 h 317 W/m 9,3 km/h (2 Bft) 99,43 %
19.07.2021 16:00 22,5 C 24,7 C 20,4 C 68 % 1021,2 hPa 0,0 l/m 1,00 h 0,00 h 508 W/m 12,1 km/h (2 Bft) 98,51 %
19.07.2021 17:00 23,0 C 24,9 C 20,7 C 66 % 1020,9 hPa 0,0 l/m 0,77 h 0,00 h 353 W/m 11,6 km/h (2 Bft) 96,01 %
19.07.2021 18:00 23,0 C 24,2 C 20,4 C 66 % 1020,6 hPa 0,0 l/m 0,60 h 0,00 h 271 W/m 12,3 km/h (3 Bft) 99,09 %
19.07.2021 19:00 22,2 C 22,1 C 19,2 C 68 % 1020,4 hPa 0,0 l/m 0,43 h 0,00 h 147 W/m 11,7 km/h (2 Bft) 98,08 %
19.07.2021 20:00 21,2 C 20,4 C 18,0 C 72 % 1020,2 hPa 0,0 l/m 0,00 h 0,00 h 56 W/m 9,9 km/h (2 Bft) 97,51 %
19.07.2021 21:00 20,1 C 18,9 C 16,6 C 73 % 1020,4 hPa 0,0 l/m 0,00 h 0,00 h 15 W/m 8,6 km/h (2 Bft) 96,65 %
19.07.2021 22:00 18,8 C 17,6 C 15,5 C 73 % 1020,6 hPa 0,0 l/m 0,00 h 0,00 h 0 W/m 6,4 km/h (2 Bft) 98,37 %
19.07.2021 23:00 17,8 C 16,7 C 14,6 C 76 % 1020,7 hPa 0,0 l/m 0,00 h 0,00 h 0 W/m 7,4 km/h (2 Bft) 98,06 %
20.07.2021 00:00 17,0 C 16,0 C 14,0 C 77 % 1020,8 hPa 0,0 l/m 0,00 h 0,00 h 0 W/m 8,2 km/h (2 Bft) 99,04 %
20.07.2021 01:00 16,1 C 15,2 C 13,3 C 80 % 1020,8 hPa 0,0 l/m 0,00 h 0,00 h 0 W/m 6,2 km/h (2 Bft) 96,37 %
20.07.2021 02:00 15,4 C 14,3 C 12,7 C 83 % 1020,8 hPa 0,0 l/m 0,00 h 0,00 h 0 W/m 4,6 km/h (1 Bft) 96,75 %
20.07.2021 03:00 14,4 C 13,2 C 11,8 C 86 % 1020,7 hPa 0,0 l/m 0,00 h 0,00 h 0 W/m 1,2 km/h (1 Bft) 97,66 %
20.07.2021 04:00 13,6 C 12,3 C 11,1 C 88 % 1020,7 hPa 0,0 l/m 0,00 h 0,00 h 0 W/m 1,0 km/h (0 Bft) 96,98 %
20.07.2021 05:00 12,8 C 11,8 C 10,7 C 90 % 1020,7 hPa 0,0 l/m 0,00 h 0,00 h 6 W/m 2,3 km/h (1 Bft) 97,34 %
20.07.2021 06:00 12,4 C 11,9 C 10,9 C 92 % 1020,7 hPa 0,0 l/m 0,00 h 0,00 h 25 W/m 2,4 km/h (1 Bft) 98,30 %
20.07.2021 07:00 13,0 C 13,2 C 12,2 C 93 % 1021,0 hPa 0,0 l/m 0,00 h 0,00 h 55 W/m 3,5 km/h (1 Bft) 98,64 %
20.07.2021 08:00 15,1 C 17,0 C 14,5 C 89 % 1021,4 hPa 0,0 l/m 0,97 h 0,00 h 302 W/m 6,4 km/h (2 Bft) 96,44 %
20.07.2021 09:00 18,1 C 22,7 C 18,7 C 79 % 1021,5 hPa 0,0 l/m 0,90 h 0,00 h 441 W/m 9,1 km/h (2 Bft) 95,81 %
20.07.2021 10:00 19,1 C 20,9 C 18,7 C 72 % 1021,6 hPa 0,0 l/m 0,50 h 0,00 h 410 W/m 11,7 km/h (2 Bft) 97,79 %
20.07.2021 11:00 19,0 C 19,9 C 17,6 C 71 % 1021,7 hPa 0,0 l/m 0,10 h 0,00 h 301 W/m 11,1 km/h (2 Bft) 99,86 %
20.07.2021 12:00 21,0 C 23,9 C 23,8 C 65 % 1021,6 hPa 0,0 l/m 0,90 h 0,00 h 813 W/m 10,7 km/h (2 Bft) 97,14 %
20.07.2021 13:00 22,5 C 25,1 C 25,4 C 60 % 1021,4 hPa 0,0 l/m 0,90 h 0,00 h 850 W/m 11,4 km/h (2 Bft) 95,47 %
20.07.2021 14:00 23,3 C 26,6 C 21,4 C 57 % 1021,2 hPa 0,0 l/m 1,00 h 0,00 h 913 W/m 13,2 km/h (3 Bft) 99,50 %
20.07.2021 15:00 24,1 C 27,3 C 21,1 C 55 % 1021,0 hPa 0,0 l/m 1,00 h 0,00 h 829 W/m 12,6 km/h (3 Bft) 97,86 %
20.07.2021 16:00 24,3 C 28,9 C 21,7 C 55 % 1020,9 hPa 0,0 l/m 1,00 h 0,00 h 726 W/m 15,1 km/h (3 Bft) 96,01 %
20.07.2021 17:00 24,5 C 29,8 C 22,2 C 55 % 1020,8 hPa 0,0 l/m 1,00 h 0,00 h 600 W/m 13,7 km/h (3 Bft) 98,86 %
20.07.2021 18:00 24,1 C 28,6 C 21,5 C 56 % 1020,8 hPa 0,0 l/m 1,00 h 0,00 h 419 W/m 13,9 km/h (3 Bft) 98,44 %
20.07.2021 19:00 23,2 C 24,3 C 19,5 C 58 % 1020,8 hPa 0,0 l/m 0,80 h 0,00 h 221 W/m 10,9 km/h (2 Bft) 96,29 %
20.07.2021 20:00 21,3 C 20,4 C 17,9 C 61 % 1021,3 hPa 0,0 l/m 0,00 h 0,00 h 44 W/m 11,6 km/h (2 Bft) 97,01 %
20.07.2021 21:00 19,9 C 18,8 C 16,4 C 65 % 1021,5 hPa 0,0 l/m 0,00 h 0,00 h 12 W/m 6,0 km/h (2 Bft) 99,37 %
20.07.2021 22:00 18,8 C 17,2 C 15,0 C 71 % 1021,8 hPa 0,0 l/m 0,00 h 0,00 h 0 W/m 1,5 km/h (1 Bft) 97,73 %
20.07.2021 23:00 17,3 C 15,6 C 13,7 C 79 % 1021,9 hPa 0,0 l/m 0,00 h 0,00 h 0 W/m 0,1 km/h (0 Bft) 95,93 %
21.07.2021 00:00 15,9 C 14,4 C 12,9 C 83 % 1022,2 hPa 0,0 l/m 0,00 h 0,00 h 0 W/m 0,0 km/h (0 Bft) 95,61 %
21.07.2021 01:00 14,9 C 13,6 C 12,3 C 86 % 1022,4 hPa 0,0 l/m 0,00 h 0,00 h 0 W/m 0,0 km/h (0 Bft) 99,29 %
21.07.2021 02:00 14,2 C 12,9 C 11,8 C 89 % 1022,3 hPa 0,0 l/m 0,00 h 0,00 h 0 W/m 0,0 km/h (0 Bft) 98,29 %
21.07.2021 03:00 13,6 C 12,4 C 11,4 C 90 % 1022,1 hPa 0,0 l/m 0,00 h 0,00 h 0 W/m 0,0 km/h (0 Bft) 97,65 %
21.07.2021 04:00 12,9 C 12,1 C 11,1 C 91 % 1022,4 hPa 0,0 l/m 0,00 h 0,00 h 0 W/m 0,1 km/h (0 Bft) 97,79 %
21.07.2021 05:00 12,6 C 11,7 C 11,0 C 92 % 1022,5 hPa 0,0 l/m 0,00 h 0,00 h 5 W/m 0,1 km/h (0 Bft) 99,57 %
21.07.2021 06:00 12,5 C 12,0 C 11,1 C 93 % 1022,8 hPa 0,0 l/m 0,00 h 0,00 h 21 W/m 0,0 km/h (0 Bft) 98,38 %
21.07.2021 07:00 13,2 C 13,6 C 12,6 C 94 % 1023,2 hPa 0,0 l/m 0,00 h 0,00 h 43 W/m 1,0 km/h (0 Bft) 96,10 %
21.07.2021 08:00 15,7 C 18,8 C 15,4 C 92 % 1023,5 hPa 0,0 l/m 0,97 h 0,00 h 315 W/m 2,5 km/h (1 Bft) 95,68 %
21.07.2021 09:00 20,7 C 26,5 C 21,0 C 72 % 1023,9 hPa 0,0 l/m 1,00 h 0,00 h 498 W/m 5,4 km/h (1 Bft) 96,65 %
21.07.2021 10:00 22,5 C 25,5 C 23,3 C 61 % 1023,9 hPa 0,0 l/m 1,00 h 0,00 h 650 W/m 7,5 km/h (2 Bft) 98,08 %
21.07.2021 11:00 23,0 C 24,6 C 22,2 C 57 % 1023,9 hPa 0,0 l/m 0,73 h 0,00 h 632 W/m 7,3 km/h (2 Bft) 99,07 %
21.07.2021 12:00 24,1 C 26,2 C 24,4 C 55 % 1023,8 hPa 0,0 l/m 0,70 h 0,00 h 674 W/m 10,7 km/h (2 Bft) 95,10 %
21.07.2021 13:00 23,7 C 24,9 C 21,8 C 58 % 1023,7 hPa 0,0 l/m 0,87 h 0,00 h 444 W/m 9,1 km/h (2 Bft) 98,15 %
21.07.2021 14:00 24,3 C 26,1 C 22,5 C 56 % 1023,6 hPa 0,0 l/m 1,00 h 0,00 h 564 W/m 9,9 km/h (2 Bft) 99,57 %
21.07.2021 15:00 24,7 C 26,7 C 22,2 C 55 % 1023,5 hPa 0,0 l/m 0,77 h 0,00 h 548 W/m 9,2 km/h (2 Bft) 95,49 %
21.07.2021 16:00 25,5 C 29,0 C 22,9 C 54 % 1023,2 hPa 0,0 l/m 0,67 h 0,00 h 558 W/m 9,9 km/h (2 Bft) 98,08 %
21.07.2021 17:00 24,6 C 26,4 C 21,7 C 55 % 1023,1 hPa 0,0 l/m 0,33 h 0,00 h 299 W/m 9,2 km/h (2 Bft) 98,51 %
21.07.2021 18:00 24,3 C 25,6 C 21,2 C 57 % 1022,8 hPa 0,0 l/m 0,23 h 0,00 h 190 W/m 6,1 km/h (2 Bft) 97,58 %
21.07.2021 19:00 23,9 C 23,8 C 20,2 C 58 % 1022,7 hPa 0,0 l/m 0,47 h 0,00 h 159 W/m 4,8 km/h (1 Bft) 97,22 %
21.07.2021 20:00 23,0 C 21,9 C 18,9 C 64 % 1022,7 hPa 0,0 l/m 0,00 h 0,00 h 44 W/m 2,6 km/h (1 Bft) 97,87 %
21.07.2021 21:00 21,3 C 19,0 C 16,6 C 73 % 1022,8 hPa 0,0 l/m 0,00 h 0,00 h 11 W/m 0,0 km/h (0 Bft) 98,58 %
21.07.2021 22:00 19,5 C 17,6 C 15,3 C 77 % 1023,0 hPa 0,0 l/m 0,00 h 0,00 h 0 W/m 0,0 km/h (0 Bft) 96,23 %
21.07.2021 23:00 18,1 C 16,4 C 14,6 C 82 % 1023,0 hPa 0,0 l/m 0,00 h 0,00 h 0 W/m 0,0 km/h (0 Bft) 97,02 %
22.07.2021 00:00 17,2 C 16,1 C 14,5 C 85 % 1023,0 hPa 0,0 l/m 0,00 h 0,00 h 0 W/m 0,0 km/h (0 Bft) 95,29 %
22.07.2021 01:00 16,9 C 16,1 C 14,6 C 87 % 1022,8 hPa 0,0 l/m 0,00 h 0,00 h 0 W/m 0,0 km/h (0 Bft) 99,57 %
22.07.2021 02:00 17,0 C 16,4 C 15,0 C 88 % 1022,6 hPa 0,0 l/m 0,00 h 0,00 h 0 W/m 0,1 km/h (0 Bft) 96,66 %
22.07.2021 03:00 17,1 C 15,8 C 14,4 C 89 % 1022,4 hPa 0,0 l/m 0,00 h 0,00 h 0 W/m 0,0 km/h (0 Bft) 98,08 %
22.07.2021 04:00 16,1 C 14,6 C 13,6 C 90 % 1022,4 hPa 0,0 l/m 0,00 h 0,00 h 0 W/m 0,0 km/h (0 Bft) 96,63 %
22.07.2021 05:00 15,4 C 14,2 C 13,4 C 92 % 1022,4 hPa 0,0 l/m 0,00 h 0,00 h 7 W/m 0,0 km/h (0 Bft) 96,69 %
22.07.2021 06:00 15,3 C 15,0 C 13,8 C 93 % 1022,3 hPa 0,0 l/m 0,00 h 0,00 h 29 W/m 0,0 km/h (0 Bft) 97,86 %
22.07.2021 07:00 15,8 C 16,3 C 15,2 C 94 % 1022,3 hPa 0,0 l/m 0,00 h 0,00 h 64 W/m 2,3 km/h (1 Bft) 98,08 %
22.07.2021 08:00 17,9 C 19,6 C 17,3 C 86 % 1022,5 hPa 0,0 l/m 0,87 h 0,00 h 248 W/m 3,4 km/h (1 Bft) 98,79 %
22.07.2021 09:00 20,4 C 20,9 C 18,9 C 76 % 1022,5 hPa 0,0 l/m 0,13 h 0,00 h 244 W/m 4,5 km/h (1 Bft) 97,16 %
22.07.2021 10:00 22,2 C 24,1 C 22,5 C 69 % 1022,4 hPa 0,0 l/m 0,87 h 0,00 h 515 W/m 7,2 km/h (2 Bft) 96,44 %
22.07.2021 11:00 23,5 C 25,1 C 22,7 C 66 % 1022,3 hPa 0,0 l/m 0,90 h 0,00 h 612 W/m 8,0 km/h (2 Bft) 97,58 %
22.07.2021 12:00 24,2 C 25,3 C 24,3 C 66 % 1022,0 hPa 0,0 l/m 0,57 h 0,00 h 525 W/m 10,1 km/h (2 Bft) 99,33 %
22.07.2021 13:00 24,8 C 26,4 C 25,8 C 65 % 1021,6 hPa 0,0 l/m 0,87 h 0,00 h 733 W/m 11,2 km/h (2 Bft) 96,01 %
22.07.2021 14:00 25,8 C 28,3 C 24,0 C 61 % 1021,2 hPa 0,0 l/m 0,83 h 0,00 h 797 W/m 11,2 km/h (2 Bft) 96,87 %
22.07.2021 15:00 26,9 C 29,1 C 23,6 C 59 % 1020,7 hPa 0,0 l/m 0,87 h 0,00 h 777 W/m 15,1 km/h (3 Bft) 99,57 %
22.07.2021 16:00 26,6 C 28,2 C 23,2 C 58 % 1020,3 hPa 0,0 l/m 0,57 h 0,00 h 463 W/m 16,0 km/h (3 Bft) 96,37 %
22.07.2021 17:00 26,1 C 29,1 C 23,2 C 59 % 1020,0 hPa 0,0 l/m 0,70 h 0,00 h 453 W/m 15,1 km/h (3 Bft) 97,36 %
22.07.2021 18:00 26,6 C 30,4 C 23,8 C 57 % 1019,6 hPa 0,0 l/m 1,00 h 0,03 h 407 W/m 14,1 km/h (3 Bft) 99,23 %
22.07.2021 19:00 24,6 C 24,9 C 21,2 C 62 % 1019,4 hPa 0,0 l/m 0,70 h 0,00 h 175 W/m 15,3 km/h (3 Bft) 98,08 %
22.07.2021 20:00 22,6 C 21,8 C 19,3 C 66 % 1019,5 hPa 0,0 l/m 0,00 h 0,00 h 40 W/m 12,3 km/h (3 Bft) 95,88 %
22.07.2021 21:00 21,3 C 20,1 C 18,0 C 70 % 1019,8 hPa 0,0 l/m 0,00 h 0,00 h 13 W/m 8,6 km/h (2 Bft) 97,10 %
22.07.2021 22:00 20,1 C 18,9 C 16,7 C 73 % 1019,9 hPa 0,0 l/m 0,00 h 0,00 h 0 W/m 7,6 km/h (2 Bft) 97,98 %
22.07.2021 23:00 19,2 C 18,1 C 15,9 C 75 % 1019,8 hPa 0,0 l/m 0,00 h 0,00 h 0 W/m 4,8 km/h (1 Bft) 98,79 %
23.07.2021 00:00 17,8 C 16,5 C 14,6 C 80 % 1020,0 hPa 0,0 l/m 0,00 h 0,00 h 0 W/m 3,9 km/h (1 Bft) 96,34 %
23.07.2021 01:00 16,9 C 16,1 C 14,3 C 82 % 1020,0 hPa 0,0 l/m 0,00 h 0,00 h 0 W/m 6,8 km/h (2 Bft) 95,52 %
23.07.2021 02:00 16,4 C 15,4 C 13,7 C 83 % 1020,0 hPa 0,0 l/m 0,00 h 0,00 h 0 W/m 5,2 km/h (1 Bft) 99,43 %
23.07.2021 03:00 15,6 C 14,5 C 13,2 C 84 % 1019,7 hPa 0,0 l/m 0,00 h 0,00 h 0 W/m 2,7 km/h (1 Bft) 98,00 %
23.07.2021 04:00 14,8 C 13,7 C 12,4 C 86 % 1019,5 hPa 0,0 l/m 0,00 h 0,00 h 0 W/m 1,1 km/h (0 Bft) 97,75 %
23.07.2021 05:00 14,0 C 13,0 C 11,7 C 89 % 1019,2 hPa 0,0 l/m 0,00 h 0,00 h 5 W/m 0,6 km/h (0 Bft) 99,07 %
23.07.2021 06:00 13,6 C 12,8 C 11,7 C 90 % 1019,0 hPa 0,0 l/m 0,00 h 0,00 h 19 W/m 0,9 km/h (0 Bft) 98,52 %
23.07.2021 07:00 14,1 C 13,9 C 12,6 C 91 % 1019,1 hPa 0,0 l/m 0,00 h 0,00 h 40 W/m 5,0 km/h (1 Bft) 96,51 %
23.07.2021 08:00 16,0 C 18,1 C 14,5 C 88 % 1019,0 hPa 0,0 l/m 0,97 h 0,00 h 325 W/m 8,4 km/h (2 Bft) 94,23 %
23.07.2021 09:00 19,6 C 24,6 C 19,7 C 75 % 1019,1 hPa 0,0 l/m 1,00 h 0,00 h 501 W/m 9,7 km/h (2 Bft) 97,81 %
23.07.2021 10:00 21,0 C 23,6 C 21,3 C 69 % 1018,9 hPa 0,0 l/m 1,00 h 0,00 h 654 W/m 10,4 km/h (2 Bft) 97,72 %
23.07.2021 11:00 22,2 C 25,0 C 21,1 C 66 % 1018,4 hPa 0,0 l/m 1,00 h 0,00 h 771 W/m 10,5 km/h (2 Bft) 97,94 %
23.07.2021 12:00 23,6 C 26,4 C 27,4 C 62 % 1017,8 hPa 0,0 l/m 1,00 h 0,00 h 850 W/m 10,8 km/h (2 Bft) 87,14 %
23.07.2021 13:00 24,8 C 27,0 C 26,1 C 58 % 1017,2 hPa 0,0 l/m 1,00 h 0,00 h 887 W/m 10,3 km/h (2 Bft) 96,03 %
23.07.2021 14:00 25,7 C 28,9 C 23,2 C 55 % 1016,4 hPa 0,0 l/m 1,00 h 0,00 h 877 W/m 12,7 km/h (3 Bft) 99,08 %
23.07.2021 15:00 26,3 C 29,3 C 22,8 C 54 % 1015,8 hPa 0,0 l/m 1,00 h 0,00 h 811 W/m 12,9 km/h (3 Bft) 95,94 %
23.07.2021 16:00 27,2 C 31,7 C 23,9 C 51 % 1015,5 hPa 0,0 l/m 1,00 h 0,00 h 705 W/m 10,0 km/h (2 Bft) 98,30 %
23.07.2021 17:00 27,9 C 33,5 C 24,9 C 48 % 1015,0 hPa 0,0 l/m 1,00 h 0,00 h 569 W/m 8,8 km/h (2 Bft) 98,36 %
23.07.2021 18:00 28,0 C 33,1 C 25,1 C 48 % 1014,4 hPa 0,0 l/m 1,00 h 0,00 h 404 W/m 7,8 km/h (2 Bft) 97,87 %
23.07.2021 19:00 26,3 C 27,5 C 22,3 C 54 % 1013,9 hPa 0,0 l/m 0,73 h 0,00 h 189 W/m 6,9 km/h (2 Bft) 96,29 %
23.07.2021 20:00 24,0 C 23,1 C 20,4 C 62 % 1013,4 hPa 0,0 l/m 0,00 h 0,00 h 44 W/m 4,6 km/h (1 Bft) 97,73 %
23.07.2021 21:00 22,3 C 20,7 C 18,4 C 68 % 1013,2 hPa 0,0 l/m 0,00 h 0,00 h 13 W/m 1,4 km/h (1 Bft) 99,02 %
23.07.2021 22:00 20,6 C 19,0 C 16,9 C 72 % 1013,2 hPa 0,0 l/m 0,00 h 0,00 h 0 W/m 1,7 km/h (1 Bft) 94,87 %
23.07.2021 23:00 19,5 C 18,6 C 16,1 C 75 % 1013,0 hPa 0,0 l/m 0,00 h 0,00 h 0 W/m 2,5 km/h (1 Bft) 98,65 %
24.07.2021 00:00 18,5 C 17,5 C 15,4 C 81 % 1012,7 hPa 0,0 l/m 0,00 h 0,00 h 0 W/m 0,2 km/h (0 Bft) 98,49 %
24.07.2021 01:00 17,7 C 16,8 C 15,0 C 84 % 1012,4 hPa 0,0 l/m 0,00 h 0,00 h 0 W/m 0,0 km/h (0 Bft) 98,51 %
24.07.2021 02:00 17,4 C 16,6 C 15,0 C 85 % 1011,8 hPa 0,0 l/m 0,00 h 0,00 h 0 W/m 0,2 km/h (0 Bft) 96,89 %
24.07.2021 03:00 17,0 C 16,1 C 14,5 C 86 % 1011,5 hPa 0,0 l/m 0,00 h 0,00 h 0 W/m 0,0 km/h (0 Bft) 96,11 %
24.07.2021 04:00 16,5 C 15,6 C 14,0 C 87 % 1011,1 hPa 0,0 l/m 0,00 h 0,00 h 0 W/m 0,0 km/h (0 Bft) 99,22 %
24.07.2021 05:00 16,1 C 15,2 C 13,7 C 89 % 1010,2 hPa 0,0 l/m 0,00 h 0,00 h 10 W/m 1,1 km/h (0 Bft) 96,15 %
24.07.2021 06:00 16,0 C 15,8 C 14,3 C 91 % 1010,3 hPa 0,0 l/m 0,07 h 0,00 h 34 W/m 0,7 km/h (0 Bft) 99,26 %
24.07.2021 07:00 16,8 C 17,1 C 15,4 C 90 % 1010,1 hPa 0,0 l/m 0,00 h 0,00 h 98 W/m 0,9 km/h (0 Bft) 99,50 %
24.07.2021 08:00 18,3 C 18,9 C 16,9 C 87 % 1009,5 hPa 0,0 l/m 0,33 h 0,00 h 171 W/m 0,3 km/h (0 Bft) 93,97 %
24.07.2021 09:00 19,9 C 21,1 C 18,7 C 83 % 1008,7 hPa 0,0 l/m 0,47 h 0,00 h 288 W/m 1,6 km/h (1 Bft) 98,78 %
24.07.2021 10:00 22,2 C 23,6 C 20,6 C 75 % 1008,6 hPa 0,0 l/m 0,30 h 0,00 h 321 W/m 0,5 km/h (0 Bft) 98,43 %
24.07.2021 11:00 22,3 C 22,1 C 19,7 C 75 % 1008,7 hPa 0,0 l/m 0,00 h 0,00 h 172 W/m 0,0 km/h (0 Bft) 97,23 %
24.07.2021 12:00 22,3 C 21,6 C 19,5 C 73 % 1008,9 hPa 0,0 l/m 0,00 h 0,00 h 118 W/m 4,6 km/h (1 Bft) 96,77 %
24.07.2021 13:00 21,8 C 21,0 C 19,0 C 77 % 1009,2 hPa 0,0 l/m 0,00 h 0,00 h 103 W/m 0,4 km/h (0 Bft) 97,08 %
24.07.2021 14:00 22,0 C 21,8 C 19,5 C 77 % 1009,2 hPa 0,0 l/m 0,00 h 0,00 h 190 W/m 3,6 km/h (1 Bft) 98,15 %
24.07.2021 15:00 21,7 C 20,9 C 19,1 C 80 % 1009,1 hPa 0,0 l/m 0,00 h 0,00 h 96 W/m 5,8 km/h (2 Bft) 97,38 %
24.07.2021 16:00 21,3 C 20,6 C 18,0 C 86 % 1009,6 hPa 0,0 l/m 0,00 h 0,77 h 93 W/m 3,4 km/h (1 Bft) 96,52 %
24.07.2021 17:00 21,1 C 20,4 C 18,5 C 88 % 1009,1 hPa 0,0 l/m 0,00 h 0,10 h 82 W/m 4,1 km/h (1 Bft) 98,72 %
24.07.2021 18:00 20,8 C 19,7 C 17,4 C 90 % 1008,6 hPa 0,4 l/m 0,00 h 0,37 h 60 W/m 1,5 km/h (1 Bft) 96,64 %
24.07.2021 19:00 20,6 C 19,9 C 17,8 C 91 % 1008,3 hPa 0,0 l/m 0,00 h 0,07 h 62 W/m 1,0 km/h (0 Bft) 99,45 %
24.07.2021 20:00 20,3 C 19,4 C 18,2 C 92 % 1008,6 hPa 0,0 l/m 0,00 h 0,00 h 17 W/m 5,0 km/h (1 Bft) 98,29 %
24.07.2021 21:00 20,0 C 19,1 C 18,1 C 92 % 1008,7 hPa 0,0 l/m 0,00 h 0,00 h 5 W/m 5,7 km/h (1 Bft) 94,95 %
24.07.2021 22:00 19,4 C 18,0 C 17,2 C 92 % 1008,8 hPa 0,0 l/m 0,00 h 0,00 h 0 W/m 1,6 km/h (1 Bft) 98,09 %
24.07.2021 23:00 18,7 C 17,6 C 17,0 C 94 % 1008,7 hPa 0,0 l/m 0,00 h 0,00 h 0 W/m 1,0 km/h (0 Bft) 98,00 %
25.07.2021 00:00 18,6 C 17,8 C 17,3 C 95 % 1008,9 hPa 0,0 l/m 0,00 h 0,00 h 0 W/m 4,1 km/h (1 Bft) 97,52 %
25.07.2021 01:00 18,4 C 17,5 C 17,4 C 96 % 1008,8 hPa 0,0 l/m 0,00 h 0,00 h 0 W/m 4,2 km/h (1 Bft) 99,79 %
25.07.2021 02:00 18,0 C 16,9 C 17,2 C 96 % 1008,6 hPa 0,0 l/m 0,00 h 0,00 h 0 W/m 2,8 km/h (1 Bft) 97,56 %
25.07.2021 03:00 17,5 C 16,3 C 16,6 C 96 % 1008,4 hPa 0,0 l/m 0,00 h 0,00 h 0 W/m 1,5 km/h (1 Bft) 97,86 %
25.07.2021 04:00 17,0 C 16,0 C 16,3 C 96 % 1008,2 hPa 0,2 l/m 0,00 h 0,00 h 0 W/m 1,3 km/h (1 Bft) 97,22 %
25.07.2021 05:00 16,8 C 15,8 C 16,4 C 96 % 1008,1 hPa 0,0 l/m 0,00 h 0,00 h 4 W/m 3,6 km/h (1 Bft) 95,66 %
25.07.2021 06:00 16,4 C 15,7 C 16,3 C 97 % 1008,0 hPa 0,0 l/m 0,00 h 0,00 h 16 W/m 4,0 km/h (1 Bft) 96,68 %
25.07.2021 07:00 16,6 C 16,5 C 16,9 C 97 % 1008,3 hPa 0,0 l/m 0,00 h 0,00 h 35 W/m 6,1 km/h (2 Bft) 98,65 %
25.07.2021 08:00 18,1 C 20,0 C 18,6 C 94 % 1008,4 hPa 0,0 l/m 0,93 h 0,00 h 292 W/m 9,7 km/h (2 Bft) 96,29 %
25.07.2021 09:00 21,1 C 26,4 C 23,6 C 83 % 1008,5 hPa 0,0 l/m 1,00 h 0,00 h 488 W/m 10,2 km/h (2 Bft) 98,22 %
25.07.2021 10:00 23,1 C 25,7 C 24,2 C 75 % 1008,6 hPa 0,0 l/m 1,00 h 0,00 h 644 W/m 12,8 km/h (3 Bft) 98,50 %
25.07.2021 11:00 24,6 C 26,1 C 23,5 C 69 % 1008,6 hPa 0,0 l/m 0,97 h 0,00 h 758 W/m 17,4 km/h (3 Bft) 93,45 %
25.07.2021 12:00 24,8 C 24,7 C 23,8 C 67 % 1008,5 hPa 0,0 l/m 0,20 h 0,07 h 311 W/m 13,7 km/h (3 Bft) 99,34 %
25.07.2021 13:00 25,2 C 26,8 C 25,4 C 69 % 1008,4 hPa 0,0 l/m 0,77 h 0,00 h 758 W/m 11,4 km/h (2 Bft) 99,22 %
25.07.2021 14:00 27,4 C 28,6 C 25,0 C 59 % 1008,3 hPa 0,0 l/m 0,60 h 0,00 h 660 W/m 11,5 km/h (2 Bft) 95,80 %
25.07.2021 15:00 26,8 C 28,3 C 23,7 C 60 % 1008,3 hPa 0,0 l/m 0,67 h 0,00 h 679 W/m 9,3 km/h (2 Bft) 98,01 %
25.07.2021 16:00 27,6 C 31,5 C 23,9 C 57 % 1008,0 hPa 0,0 l/m 0,80 h 0,00 h 639 W/m 9,1 km/h (2 Bft) 98,52 %
25.07.2021 17:00 26,1 C 25,7 C 22,6 C 64 % 1007,9 hPa 0,0 l/m 0,13 h 0,13 h 187 W/m 7,8 km/h (2 Bft) 97,23 %
25.07.2021 18:00 24,4 C 23,7 C 21,0 C 69 % 1008,0 hPa 0,0 l/m 0,00 h 0,00 h 122 W/m 6,1 km/h (2 Bft) 98,15 %
25.07.2021 19:00 22,9 C 22,3 C 19,7 C 74 % 1008,2 hPa 0,0 l/m 0,00 h 0,00 h 86 W/m 4,2 km/h (1 Bft) 96,79 %
25.07.2021 20:00 22,4 C 21,7 C 19,5 C 77 % 1008,4 hPa 0,0 l/m 0,73 h 0,00 h 69 W/m 2,5 km/h (1 Bft) 98,07 %
25.07.2021 21:00 21,9 C 20,2 C 18,2 C 80 % 1008,6 hPa 0,0 l/m 0,07 h 0,00 h 13 W/m 0,4 km/h (0 Bft) 98,51 %
25.07.2021 22:00 20,7 C 19,4 C 17,6 C 83 % 1009,1 hPa 0,0 l/m 0,00 h 0,00 h 0 W/m 1,1 km/h (0 Bft) 96,23 %
25.07.2021 23:00 20,1 C 18,9 C 17,3 C 86 % 1009,5 hPa 0,0 l/m 0,00 h 0,00 h 0 W/m 1,5 km/h (1 Bft) 96,58 %
Min-Datum _ 20.07.21 20.07.21 20.07.21 23.07.21 25.07.21 - - - - 19.07.21 22.07.21
_ Min-Zeit 06:02 05:16 05:06 17:44 17:16 - - - - 00:30 00:02
Minimum _ 12,3 C 11,7 C 10,6 C 45 % 1007,8 hPa - - - - 0,0 km/h (0 Bft) 9,09 %
Max-Datum _ 23.07.21 25.07.21 25.07.21 25.07.21 21.07.21 24.07.21 21.07.21 24.07.21 25.07.21 25.07.21 19.07.21
_ Max-Zeit 18:20 16:48 13:52 06:12 09:14 18:02 08:41 18:08 15:28 11:16 01:00
Maximum _ 28,4 C 34,4 C 32,8 C 97 % 1023,9 hPa 0,4 l/m 0,08 h 0,07 h 1079 W/m 35,4 km/h
S-SW (5 Bft)
100,00 %
Durchschnitt _ 20,0 C 20,5 C 18,1 C 76 % 1017,5 hPa #0,6 l/m #53:12 h #1:32 h 319 W/m 5,9 km/h (2 Bft) 97,49 %
© 2021 W. Hausmann